Time;durP1;ratioP1;P1;durP2;ratioP2;P2;SDS_P1;SDS_P2;PMS_P1;PMS_P2;Temp;Humidity;BMP_temperature;BMP_pressure;BME280_temperature;BME280_humidity;BME280_pressure;Samples;Min_cycle;Max_cycle;Signal;HPM_P1;HPM_P2
2022/08/13 00:00:04;;;;;;;4.53;1.60;;;;;;;;;;5012345;28;20216;-65
2022/08/13 00:02:29;;;;;;;5.72;1.83;;;;;;;;;;5012680;28;20589;-65
2022/08/13 00:04:59;;;;;;;7.57;1.95;;;;;;;;;;5011976;28;20586;-65
2022/08/13 00:07:25;;;;;;;9.00;1.58;;;;;;;;;;5012062;28;20212;-65
2022/08/13 00:09:50;;;;;;;3.45;1.67;;;;;;;;;;5012214;28;20218;-64
2022/08/13 00:15:05;;;;;;;2.15;1.52;;;;;;;;;;5010957;28;20274;-64
2022/08/13 00:17:33;;;;;;;3.33;1.70;;;;;;;;;;5012297;28;20216;-64
2022/08/13 00:19:58;;;;;;;3.83;1.75;;;;;;;;;;5012523;28;20208;-64
2022/08/13 00:22:25;;;;;;;4.68;1.73;;;;;;;;;;5011122;28;20227;-64
2022/08/13 00:24:50;;;;;;;4.63;1.65;;;;;;;;;;5011619;28;20260;-64
2022/08/13 00:27:16;;;;;;;5.53;1.83;;;;;;;;;;5012263;28;20694;-64
2022/08/13 00:29:41;;;;;;;2.38;1.40;;;;;;;;;;5011181;28;20354;-64
2022/08/13 00:32:06;;;;;;;5.22;1.58;;;;;;;;;;5011397;28;20223;-65
2022/08/13 00:34:32;;;;;;;6.53;1.73;;;;;;;;;;5012633;28;20271;-64
2022/08/13 00:36:57;;;;;;;4.03;1.55;;;;;;;;;;5012669;28;20286;-64
2022/08/13 00:39:22;;;;;;;7.35;1.95;;;;;;;;;;5010949;28;20652;-64
2022/08/13 00:41:47;;;;;;;2.88;1.65;;;;;;;;;;5012674;28;20231;-64
2022/08/13 00:44:14;;;;;;;2.97;1.70;;;;;;;;;;5011624;28;20217;-65
2022/08/13 00:46:39;;;;;;;2.20;1.30;;;;;;;;;;5011826;28;20222;-64
2022/08/13 00:49:05;;;;;;;3.85;1.67;;;;;;;;;;5012049;28;20216;-64
2022/08/13 00:51:30;;;;;;;4.32;1.50;;;;;;;;;;5012515;28;20288;-65
2022/08/13 00:53:58;;;;;;;2.83;1.40;;;;;;;;;;5015294;28;20563;-64
2022/08/13 00:56:23;;;;;;;3.92;1.67;;;;;;;;;;5015286;28;20221;-65
2022/08/13 00:58:49;;;;;;;8.75;1.70;;;;;;;;;;5014808;28;20211;-64
2022/08/13 01:01:14;;;;;;;5.55;2.00;;;;;;;;;;5014703;28;20263;-64
2022/08/13 01:03:40;;;;;;;2.08;1.48;;;;;;;;;;5015827;28;20208;-64
2022/08/13 01:06:05;;;;;;;4.85;1.80;;;;;;;;;;5013501;28;20240;-65
2022/08/13 01:08:32;;;;;;;2.65;1.70;;;;;;;;;;5015407;28;20295;-65
2022/08/13 01:10:59;;;;;;;5.63;1.52;;;;;;;;;;5015656;28;20572;-65
2022/08/13 01:13:25;;;;;;;4.10;1.50;;;;;;;;;;5014844;28;20343;-65
2022/08/13 01:15:51;;;;;;;3.10;1.25;;;;;;;;;;5014023;28;20217;-65
2022/08/13 01:18:17;;;;;;;2.88;1.50;;;;;;;;;;5015222;28;20216;-65
2022/08/13 01:20:44;;;;;;;3.92;1.50;;;;;;;;;;5013525;28;20312;-65
2022/08/13 01:23:10;;;;;;;6.18;1.70;;;;;;;;;;5015298;28;20229;-65
2022/08/13 01:25:36;;;;;;;6.05;1.70;;;;;;;;;;5015462;28;20810;-65
2022/08/13 01:28:02;;;;;;;4.32;1.55;;;;;;;;;;5014270;28;20220;-65
2022/08/13 01:30:27;;;;;;;6.15;1.73;;;;;;;;;;5015180;28;20224;-65
2022/08/13 01:32:54;;;;;;;3.50;1.60;;;;;;;;;;5014300;28;20224;-64
2022/08/13 01:35:20;;;;;;;3.63;1.70;;;;;;;;;;5013939;28;20220;-64
2022/08/13 01:37:53;;;;;;;4.25;1.60;;;;;;;;;;5015414;28;20204;-64
2022/08/13 01:40:18;;;;;;;3.15;1.40;;;;;;;;;;5014410;28;20299;-64
2022/08/13 01:42:44;;;;;;;5.25;1.50;;;;;;;;;;5014407;28;20311;-64
2022/08/13 01:45:10;;;;;;;4.65;1.45;;;;;;;;;;5014491;28;20303;-64
2022/08/13 01:50:29;;;;;;;3.83;1.40;;;;;;;;;;5012745;28;20224;-64
2022/08/13 01:53:00;;;;;;;3.42;1.60;;;;;;;;;;5013984;28;20215;-65
2022/08/13 01:55:29;;;;;;;3.90;1.70;;;;;;;;;;5013117;28;20200;-64
2022/08/13 01:57:54;;;;;;;5.68;1.60;;;;;;;;;;5014723;28;20213;-64
2022/08/13 02:00:21;;;;;;;3.28;1.50;;;;;;;;;;5014546;28;20223;-64
2022/08/13 02:02:48;;;;;;;6.53;1.80;;;;;;;;;;5013580;28;20234;-64
2022/08/13 02:05:13;;;;;;;2.35;1.58;;;;;;;;;;5014271;28;20220;-65
2022/08/13 02:07:38;;;;;;;3.30;1.13;;;;;;;;;;5014622;28;20285;-64
2022/08/13 02:10:04;;;;;;;4.40;1.70;;;;;;;;;;5013483;28;20665;-65
2022/08/13 02:12:29;;;;;;;3.63;1.40;;;;;;;;;;5014684;28;20216;-64
2022/08/13 02:14:56;;;;;;;5.15;1.63;;;;;;;;;;5013072;28;20220;-64
2022/08/13 02:17:27;;;;;;;3.75;1.30;;;;;;;;;;5013181;28;20568;-65
2022/08/13 02:19:53;;;;;;;4.90;1.48;;;;;;;;;;5014439;28;20224;-65
2022/08/13 02:22:19;;;;;;;7.40;1.50;;;;;;;;;;5014173;28;20232;-64
2022/08/13 02:24:52;;;;;;;3.00;1.30;;;;;;;;;;5013554;28;20213;-65
2022/08/13 02:27:20;;;;;;;5.43;1.88;;;;;;;;;;5013744;28;20707;-65
2022/08/13 02:29:45;;;;;;;3.70;1.40;;;;;;;;;;5013043;28;20287;-65
2022/08/13 02:32:11;;;;;;;3.50;1.30;;;;;;;;;;5012830;28;20347;-65
2022/08/13 02:34:39;;;;;;;4.85;1.45;;;;;;;;;;5014378;28;20229;-64
2022/08/13 02:37:04;;;;;;;4.32;1.52;;;;;;;;;;5013575;28;20749;-65
2022/08/13 02:39:30;;;;;;;3.20;1.25;;;;;;;;;;5013297;28;20236;-64
2022/08/13 02:41:56;;;;;;;4.10;1.58;;;;;;;;;;5013944;28;20252;-65
2022/08/13 02:44:25;;;;;;;2.38;1.25;;;;;;;;;;5013689;28;20230;-64
2022/08/13 02:46:50;;;;;;;3.22;1.55;;;;;;;;;;5013045;28;20212;-65
2022/08/13 02:49:17;;;;;;;4.47;1.45;;;;;;;;;;5013634;28;20570;-65
2022/08/13 02:51:42;;;;;;;4.13;1.17;;;;;;;;;;5012212;28;20208;-64
2022/08/13 02:54:07;;;;;;;2.83;1.15;;;;;;;;;;5013039;28;20223;-65
2022/08/13 02:56:33;;;;;;;2.90;1.38;;;;;;;;;;5013733;28;20212;-65
2022/08/13 02:58:58;;;;;;;6.13;1.52;;;;;;;;;;5011605;28;20223;-64
2022/08/13 03:01:24;;;;;;;2.50;1.30;;;;;;;;;;5013231;28;20294;-64
2022/08/13 03:03:49;;;;;;;5.68;1.38;;;;;;;;;;5013497;28;20204;-64
2022/08/13 03:06:18;;;;;;;6.22;1.50;;;;;;;;;;5012644;28;20227;-64
2022/08/13 03:08:44;;;;;;;4.75;1.50;;;;;;;;;;5013493;28;20268;-65
2022/08/13 03:11:09;;;;;;;2.63;1.30;;;;;;;;;;5013243;28;20303;-65
2022/08/13 03:13:36;;;;;;;2.85;1.30;;;;;;;;;;5011267;28;20270;-65
2022/08/13 03:16:02;;;;;;;3.47;1.30;;;;;;;;;;5012514;28;20219;-65
2022/08/13 03:18:27;;;;;;;3.60;1.33;;;;;;;;;;5012141;28;20582;-64
2022/08/13 03:20:52;;;;;;;3.10;1.30;;;;;;;;;;5012503;28;20675;-65
2022/08/13 03:23:18;;;;;;;2.75;1.20;;;;;;;;;;5012895;28;20267;-64
2022/08/13 03:25:43;;;;;;;2.05;1.20;;;;;;;;;;5013476;28;20212;-64
2022/08/13 03:28:08;;;;;;;4.60;1.20;;;;;;;;;;5011926;28;20295;-65
2022/08/13 03:30:34;;;;;;;3.03;1.30;;;;;;;;;;5013360;28;20290;-64
2022/08/13 03:33:04;;;;;;;4.03;1.50;;;;;;;;;;5011668;28;20213;-64
2022/08/13 03:35:29;;;;;;;2.90;1.30;;;;;;;;;;5012184;28;20219;-65
2022/08/13 03:37:55;;;;;;;4.30;1.35;;;;;;;;;;5013120;28;20216;-65
2022/08/13 03:40:21;;;;;;;1.77;1.05;;;;;;;;;;5012841;28;20283;-64
2022/08/13 03:42:48;;;;;;;3.42;1.65;;;;;;;;;;5012376;28;20228;-64
2022/08/13 03:45:15;;;;;;;2.70;1.10;;;;;;;;;;5012301;28;20232;-64
2022/08/13 03:47:40;;;;;;;4.22;1.10;;;;;;;;;;5013082;28;20702;-65
2022/08/13 03:50:06;;;;;;;4.93;1.20;;;;;;;;;;5011561;28;20232;-65
2022/08/13 03:52:33;;;;;;;4.60;1.30;;;;;;;;;;5013069;28;20211;-64
2022/08/13 03:54:58;;;;;;;9.70;1.60;;;;;;;;;;5012308;28;20295;-64
2022/08/13 03:57:24;;;;;;;5.03;1.48;;;;;;;;;;5011137;28;20319;-63
2022/08/13 03:59:49;;;;;;;3.42;1.27;;;;;;;;;;5012564;28;20220;-63
2022/08/13 04:02:16;;;;;;;7.05;1.85;;;;;;;;;;5011874;28;20240;-63
2022/08/13 04:04:46;;;;;;;4.18;1.48;;;;;;;;;;5012814;28;20267;-63
2022/08/13 04:07:12;;;;;;;3.72;1.15;;;;;;;;;;5012484;28;20208;-64
2022/08/13 04:09:37;;;;;;;3.95;1.40;;;;;;;;;;5011752;28;20228;-64
2022/08/13 04:12:03;;;;;;;1.83;1.30;;;;;;;;;;5012457;28;20216;-64
2022/08/13 04:14:28;;;;;;;2.33;1.10;;;;;;;;;;5012141;28;20216;-63
2022/08/13 04:16:53;;;;;;;4.88;1.20;;;;;;;;;;5012005;28;20219;-63
2022/08/13 04:19:19;;;;;;;5.10;1.40;;;;;;;;;;5012060;28;20213;-63
2022/08/13 04:21:44;;;;;;;2.88;1.20;;;;;;;;;;5012493;28;20596;-64
2022/08/13 04:24:11;;;;;;;3.13;1.20;;;;;;;;;;5011352;28;20220;-64
2022/08/13 04:26:37;;;;;;;3.45;1.30;;;;;;;;;;5013306;28;20216;-64
2022/08/13 04:29:04;;;;;;;4.40;1.20;;;;;;;;;;5015903;28;20219;-64
2022/08/13 04:31:30;;;;;;;2.47;1.17;;;;;;;;;;5014567;28;20216;-64
2022/08/13 04:33:55;;;;;;;2.33;1.27;;;;;;;;;;5016702;28;20243;-64
2022/08/13 04:36:20;;;;;;;3.25;1.25;;;;;;;;;;5015661;28;20270;-64
2022/08/13 04:38:46;;;;;;;3.10;1.20;;;;;;;;;;5015490;28;20208;-64
2022/08/13 04:41:12;;;;;;;2.28;1.00;;;;;;;;;;5015782;28;20221;-64
2022/08/13 04:43:37;;;;;;;2.53;1.27;;;;;;;;;;5016205;28;20216;-64
2022/08/13 04:46:02;;;;;;;4.35;1.20;;;;;;;;;;5014948;28;20205;-64
2022/08/13 04:48:28;;;;;;;3.13;1.10;;;;;;;;;;5016110;28;20663;-64
2022/08/13 04:50:53;;;;;;;3.28;1.20;;;;;;;;;;5014772;28;20208;-64
2022/08/13 04:53:20;;;;;;;3.90;1.27;;;;;;;;;;5015078;28;20216;-64
2022/08/13 04:55:45;;;;;;;6.88;1.38;;;;;;;;;;5014773;28;20239;-64
2022/08/13 04:58:11;;;;;;;4.20;1.40;;;;;;;;;;5015035;28;20618;-64
2022/08/13 05:00:36;;;;;;;5.22;1.40;;;;;;;;;;5015612;28;20338;-64
2022/08/13 05:03:08;;;;;;;4.00;1.20;;;;;;;;;;5014435;28;20225;-64
2022/08/13 05:05:35;;;;;;;3.15;1.35;;;;;;;;;;5014816;28;20279;-64
2022/08/13 05:08:00;;;;;;;6.10;1.40;;;;;;;;;;5015361;28;20240;-67
2022/08/13 05:10:26;;;;;;;3.95;1.23;;;;;;;;;;5015920;28;20212;-64
2022/08/13 05:12:52;;;;;;;6.72;1.60;;;;;;;;;;5014986;28;20220;-64
2022/08/13 05:15:17;;;;;;;24.90;2.95;;;;;;;;;;5014925;28;20213;-64
2022/08/13 05:17:43;;;;;;;7.97;1.70;;;;;;;;;;5015801;28;20205;-65
2022/08/13 05:20:13;;;;;;;6.15;1.10;;;;;;;;;;5014420;28;20262;-64
2022/08/13 05:22:38;;;;;;;6.03;1.40;;;;;;;;;;5015512;28;20220;-64
2022/08/13 05:25:04;;;;;;;4.70;1.35;;;;;;;;;;5015208;28;20223;-64
2022/08/13 05:27:31;;;;;;;3.30;1.33;;;;;;;;;;5014657;28;20228;-64
2022/08/13 05:29:58;;;;;;;2.75;1.30;;;;;;;;;;5015653;28;20213;-64
2022/08/13 05:32:24;;;;;;;3.58;1.30;;;;;;;;;;5014924;28;20275;-64
2022/08/13 05:34:51;;;;;;;3.72;1.45;;;;;;;;;;5014438;28;20631;-63
2022/08/13 05:37:17;;;;;;;3.53;1.30;;;;;;;;;;5014234;28;20537;-63
2022/08/13 05:39:43;;;;;;;3.83;1.17;;;;;;;;;;5013642;28;20275;-64
2022/08/13 05:42:08;;;;;;;3.35;1.38;;;;;;;;;;5012696;28;20589;-64
2022/08/13 05:44:33;;;;;;;2.83;1.13;;;;;;;;;;5015150;28;20687;-64
2022/08/13 05:46:59;;;;;;;5.60;1.45;;;;;;;;;;5014804;28;20303;-64
2022/08/13 05:49:24;;;;;;;4.47;1.40;;;;;;;;;;5013918;28;20212;-63
2022/08/13 05:51:50;;;;;;;2.83;1.60;;;;;;;;;;5014974;28;20216;-64
2022/08/13 05:54:16;;;;;;;5.75;1.50;;;;;;;;;;5014544;28;20209;-63
2022/08/13 05:56:41;;;;;;;3.53;1.45;;;;;;;;;;5013996;28;20220;-64
2022/08/13 06:03:22;;;;;;;4.70;1.63;;;;;;;;;;5014482;28;20209;-64
2022/08/13 06:04:36;;;;;;;3.42;1.60;;;;;;;;;;5014505;28;20215;-64
2022/08/13 06:07:02;;;;;;;4.55;1.80;;;;;;;;;;5013864;28;20580;-64
2022/08/13 06:09:27;;;;;;;4.35;1.67;;;;;;;;;;5013657;28;20240;-64
2022/08/13 06:11:53;;;;;;;2.38;1.55;;;;;;;;;;5014722;28;20212;-63
2022/08/13 06:14:20;;;;;;;4.88;1.70;;;;;;;;;;5014030;28;20559;-64
2022/08/13 06:16:45;;;;;;;6.60;1.65;;;;;;;;;;5013497;28;20220;-64
2022/08/13 06:19:12;;;;;;;3.97;1.48;;;;;;;;;;5013039;28;20546;-64
2022/08/13 06:21:38;;;;;;;4.45;1.67;;;;;;;;;;5014087;28;20263;-64
2022/08/13 06:24:05;;;;;;;6.00;1.55;;;;;;;;;;5013314;28;20721;-64
2022/08/13 06:26:30;;;;;;;5.95;1.80;;;;;;;;;;5014533;28;20215;-64
2022/08/13 06:28:56;;;;;;;4.38;1.77;;;;;;;;;;5014454;28;20303;-64
2022/08/13 06:31:28;;;;;;;4.05;1.83;;;;;;;;;;5011735;28;20303;-64
2022/08/13 06:33:59;;;;;;;2.03;1.63;;;;;;;;;;5014007;28;20216;-64
2022/08/13 06:36:25;;;;;;;6.68;2.00;;;;;;;;;;5013647;28;20292;-64
2022/08/13 06:38:50;;;;;;;7.40;1.80;;;;;;;;;;5013201;28;20312;-64
2022/08/13 06:41:16;;;;;;;4.03;1.73;;;;;;;;;;5013518;28;20263;-64
2022/08/13 06:43:42;;;;;;;5.10;1.90;;;;;;;;;;5013265;28;20242;-64
2022/08/13 06:46:08;;;;;;;4.63;2.00;;;;;;;;;;5011909;28;20223;-64
2022/08/13 06:48:33;;;;;;;3.95;1.65;;;;;;;;;;5012294;28;20675;-64
2022/08/13 06:50:59;;;;;;;6.75;2.08;;;;;;;;;;5012102;28;20265;-64
2022/08/13 06:53:24;;;;;;;7.28;2.17;;;;;;;;;;5013016;28;20212;-64
2022/08/13 06:55:50;;;;;;;4.90;1.85;;;;;;;;;;5013873;28;20212;-64
2022/08/13 06:58:15;;;;;;;6.00;1.92;;;;;;;;;;5012473;28;20215;-65
2022/08/13 07:00:41;;;;;;;4.68;1.92;;;;;;;;;;5012722;28;20669;-64
2022/08/13 07:03:06;;;;;;;3.75;2.00;;;;;;;;;;5012906;28;20228;-64
2022/08/13 07:05:33;;;;;;;5.43;2.28;;;;;;;;;;5012997;28;20215;-64
2022/08/13 07:08:02;;;;;;;6.80;2.03;;;;;;;;;;5012985;28;20700;-64
2022/08/13 07:10:27;;;;;;;5.82;2.10;;;;;;;;;;5013453;28;20221;-64
2022/08/13 07:12:53;;;;;;;5.13;2.50;;;;;;;;;;5012808;28;20220;-64
2022/08/13 07:15:18;;;;;;;4.00;2.28;;;;;;;;;;5013014;28;20211;-63
2022/08/13 07:17:45;;;;;;;4.80;2.38;;;;;;;;;;5013265;28;20270;-64
2022/08/13 07:20:10;;;;;;;4.90;2.30;;;;;;;;;;5012140;28;20240;-64
2022/08/13 07:22:36;;;;;;;6.03;2.00;;;;;;;;;;5013573;28;20718;-64
2022/08/13 07:25:02;;;;;;;2.60;1.70;;;;;;;;;;5012696;28;20204;-64
2022/08/13 07:27:27;;;;;;;9.10;2.45;;;;;;;;;;5012392;28;20286;-64
2022/08/13 07:29:53;;;;;;;6.55;2.20;;;;;;;;;;5013213;28;20678;-64
2022/08/13 07:32:18;;;;;;;6.05;2.10;;;;;;;;;;5012711;28;20212;-64
2022/08/13 07:34:44;;;;;;;6.47;2.20;;;;;;;;;;5012316;28;20639;-64
2022/08/13 07:37:09;;;;;;;6.78;2.20;;;;;;;;;;5012590;28;20613;-64
2022/08/13 07:39:34;;;;;;;5.93;2.40;;;;;;;;;;5011528;28;20212;-64
2022/08/13 07:41:59;;;;;;;7.00;1.90;;;;;;;;;;5012515;28;20225;-64
2022/08/13 07:44:25;;;;;;;4.57;2.00;;;;;;;;;;5011346;28;20205;-64
2022/08/13 07:46:51;;;;;;;7.45;2.00;;;;;;;;;;5012748;28;20209;-64
2022/08/13 07:49:16;;;;;;;4.15;1.80;;;;;;;;;;5011957;28;20259;-64
2022/08/13 07:51:42;;;;;;;4.30;1.98;;;;;;;;;;5013116;28;20205;-64
2022/08/13 07:54:08;;;;;;;2.40;1.83;;;;;;;;;;5011556;28;20299;-64
2022/08/13 07:56:33;;;;;;;5.50;2.08;;;;;;;;;;5013054;28;20221;-64
2022/08/13 07:59:00;;;;;;;5.57;1.60;;;;;;;;;;5012792;28;20213;-64
2022/08/13 08:01:27;;;;;;;6.35;1.67;;;;;;;;;;5011459;28;20224;-64
2022/08/13 08:03:54;;;;;;;3.78;1.50;;;;;;;;;;5012693;28;20303;-64
2022/08/13 08:06:20;;;;;;;3.25;1.60;;;;;;;;;;5011157;28;20702;-64
2022/08/13 08:08:45;;;;;;;5.07;1.40;;;;;;;;;;5011623;28;20224;-64
2022/08/13 08:12:30;;;;;;;7.05;1.42;;;;;;;;;;5012328;28;20239;-64
2022/08/13 08:13:56;;;;;;;3.97;1.40;;;;;;;;;;5012280;28;20229;-64
2022/08/13 08:16:22;;;;;;;4.38;1.30;;;;;;;;;;5010162;28;20208;-64
2022/08/13 08:18:49;;;;;;;3.20;1.42;;;;;;;;;;5012833;28;20742;-63
2022/08/13 08:21:15;;;;;;;2.83;1.13;;;;;;;;;;5012056;28;20256;-64
2022/08/13 08:23:41;;;;;;;5.22;1.38;;;;;;;;;;5010759;28;20252;-64
2022/08/13 08:26:07;;;;;;;6.10;1.60;;;;;;;;;;5012274;28;20219;-64
2022/08/13 08:28:32;;;;;;;3.47;1.13;;;;;;;;;;5012732;28;20311;-64
2022/08/13 08:30:57;;;;;;;4.95;1.50;;;;;;;;;;5011968;28;20216;-64
2022/08/13 08:33:25;;;;;;;7.03;1.40;;;;;;;;;;5012241;28;20220;-64
2022/08/13 08:35:51;;;;;;;4.03;1.30;;;;;;;;;;5012544;28;20213;-64
2022/08/13 08:43:44;;;;;;;5.25;1.50;;;;;;;;;;5010818;28;20223;-64
2022/08/13 08:46:09;;;;;;;2.38;1.33;;;;;;;;;;5010627;28;20216;-64
2022/08/13 08:48:36;;;;;;;2.88;1.30;;;;;;;;;;5012493;28;20208;-64
2022/08/13 08:51:01;;;;;;;6.50;1.48;;;;;;;;;;5011179;28;20288;-63
2022/08/13 08:53:27;;;;;;;4.63;1.30;;;;;;;;;;5012593;28;20692;-63
2022/08/13 08:55:53;;;;;;;3.97;1.30;;;;;;;;;;5010893;28;20274;-64
2022/08/13 08:58:19;;;;;;;5.88;1.27;;;;;;;;;;5011405;28;20224;-64
2022/08/13 09:00:45;;;;;;;5.03;1.33;;;;;;;;;;5012268;28;20212;-64
2022/08/13 09:03:10;;;;;;;3.80;1.30;;;;;;;;;;5011814;28;20283;-64
2022/08/13 09:05:36;;;;;;;4.35;1.40;;;;;;;;;;5011194;28;20216;-64
2022/08/13 09:08:02;;;;;;;8.35;1.30;;;;;;;;;;5011813;28;20237;-63
2022/08/13 09:10:27;;;;;;;4.05;1.27;;;;;;;;;;5012011;28;20216;-64
2022/08/13 09:12:53;;;;;;;8.25;1.50;;;;;;;;;;5012092;28;20337;-64
2022/08/13 09:15:21;;;;;;;3.90;1.20;;;;;;;;;;5015107;28;20612;-64
2022/08/13 09:17:46;;;;;;;2.75;1.27;;;;;;;;;;5015973;28;20201;-63
2022/08/13 09:20:12;;;;;;;5.50;1.23;;;;;;;;;;5014448;28;20209;-64
2022/08/13 09:22:40;;;;;;;6.45;1.38;;;;;;;;;;5015703;28;20340;-64
2022/08/13 09:25:05;;;;;;;3.20;1.30;;;;;;;;;;5015179;28;20663;-63
2022/08/13 09:27:30;;;;;;;5.47;1.30;;;;;;;;;;5014943;28;20262;-64
2022/08/13 09:29:56;;;;;;;3.63;1.30;;;;;;;;;;5015324;28;20262;-64
2022/08/13 09:32:21;;;;;;;5.68;1.30;;;;;;;;;;5014635;28;20285;-64
2022/08/13 09:34:46;;;;;;;4.10;1.10;;;;;;;;;;5013953;28;20588;-64
2022/08/13 09:37:12;;;;;;;3.65;1.20;;;;;;;;;;5014855;28;20220;-64
2022/08/13 09:39:49;;;;;;;5.43;1.38;;;;;;;;;;5014434;28;20574;-64
2022/08/13 09:42:24;;;;;;;4.53;1.27;;;;;;;;;;5013365;28;20228;-64
2022/08/13 09:44:51;;;;;;;2.58;1.15;;;;;;;;;;5013895;28;20212;-64
2022/08/13 09:47:17;;;;;;;5.43;1.30;;;;;;;;;;5013762;28;20209;-63
2022/08/13 09:49:44;;;;;;;8.18;1.33;;;;;;;;;;5015103;28;20204;-64
2022/08/13 09:52:09;;;;;;;5.22;1.02;;;;;;;;;;5014285;28;20223;-64
2022/08/13 09:54:34;;;;;;;3.55;1.20;;;;;;;;;;5014392;28;20208;-64
2022/08/13 09:57:00;;;;;;;3.80;1.20;;;;;;;;;;5014852;28;20579;-64
2022/08/13 09:59:25;;;;;;;3.15;1.20;;;;;;;;;;5014551;28;20213;-64
2022/08/13 10:01:56;;;;;;;5.60;1.20;;;;;;;;;;5013846;28;20271;-64
2022/08/13 10:04:21;;;;;;;1.88;1.00;;;;;;;;;;5014609;28;20711;-64
2022/08/13 10:06:46;;;;;;;6.78;1.30;;;;;;;;;;5014550;28;20224;-64
2022/08/13 10:09:12;;;;;;;2.47;1.00;;;;;;;;;;5013533;28;20236;-64
2022/08/13 10:11:37;;;;;;;2.42;1.17;;;;;;;;;;5014327;28;20219;-64
2022/08/13 10:14:03;;;;;;;4.07;1.00;;;;;;;;;;5014408;28;20228;-64
2022/08/13 10:16:28;;;;;;;2.70;1.10;;;;;;;;;;5013692;28;20219;-64
2022/08/13 10:18:54;;;;;;;4.68;1.13;;;;;;;;;;5014711;28;20688;-64
2022/08/13 10:21:19;;;;;;;3.45;1.17;;;;;;;;;;5013932;28;20658;-64
2022/08/13 10:23:44;;;;;;;4.95;1.20;;;;;;;;;;5013709;28;20208;-64
2022/08/13 10:26:10;;;;;;;5.22;1.15;;;;;;;;;;5013876;28;20216;-64
2022/08/13 10:28:36;;;;;;;3.58;1.33;;;;;;;;;;5014471;28;20561;-64
2022/08/13 10:31:03;;;;;;;2.88;1.15;;;;;;;;;;5013544;28;20216;-63
2022/08/13 10:33:28;;;;;;;4.05;1.05;;;;;;;;;;5014238;28;20215;-64
2022/08/13 10:35:55;;;;;;;7.65;1.10;;;;;;;;;;5013397;28;20212;-64
2022/08/13 10:38:26;;;;;;;3.22;1.00;;;;;;;;;;5013516;28;20228;-63
2022/08/13 10:40:56;;;;;;;1.58;1.02;;;;;;;;;;5014279;28;20239;-64
2022/08/13 10:43:22;;;;;;;3.33;1.13;;;;;;;;;;5012512;28;20216;-64
2022/08/13 10:45:48;;;;;;;3.47;1.10;;;;;;;;;;5013891;28;20221;-64
2022/08/13 10:48:13;;;;;;;3.72;1.20;;;;;;;;;;5013303;28;20215;-64
2022/08/13 10:50:39;;;;;;;1.52;1.00;;;;;;;;;;5013250;28;20212;-63
2022/08/13 10:53:04;;;;;;;2.45;1.00;;;;;;;;;;5013265;28;20299;-64
2022/08/13 10:55:30;;;;;;;1.63;0.98;;;;;;;;;;5014045;28;20686;-63
2022/08/13 10:57:55;;;;;;;3.50;0.98;;;;;;;;;;5012871;28;20214;-64
2022/08/13 11:00:20;;;;;;;1.75;1.00;;;;;;;;;;5013374;28;20204;-64
2022/08/13 11:02:52;;;;;;;3.05;0.88;;;;;;;;;;5013658;28;20212;-64
2022/08/13 11:05:22;;;;;;;2.13;0.88;;;;;;;;;;5011513;28;20251;-64
2022/08/13 11:07:47;;;;;;;1.90;0.65;;;;;;;;;;5013261;28;20759;-64
2022/08/13 11:10:13;;;;;;;3.92;0.90;;;;;;;;;;5013159;28;20216;-64
2022/08/13 11:12:39;;;;;;;4.07;1.13;;;;;;;;;;5012638;28;20216;-64
2022/08/13 11:15:07;;;;;;;4.82;0.90;;;;;;;;;;4993343;28;20217;-64
2022/08/13 11:17:33;;;;;;;1.95;1.00;;;;;;;;;;4993910;28;20225;-63
2022/08/13 11:20:03;;;;;;;4.18;1.00;;;;;;;;;;4993036;28;20297;-63
2022/08/13 11:22:28;;;;;;;2.28;0.80;;;;;;;;;;4993711;28;20236;-64
2022/08/13 11:24:55;;;;;;;3.80;0.95;;;;;;;;;;4993480;28;20217;-64
2022/08/13 11:27:20;;;;;;;4.07;0.88;;;;;;;;;;4993529;28;20556;-63
2022/08/13 11:29:45;;;;;;;1.25;0.70;;;;;;;;;;4993467;28;20683;-63
2022/08/13 11:32:11;;;;;;;2.40;0.73;;;;;;;;;;4992688;28;20217;-64
2022/08/13 11:34:36;;;;;;;3.60;0.88;;;;;;;;;;4993554;28;20691;-64
2022/08/13 11:37:01;;;;;;;4.50;1.00;;;;;;;;;;4992641;28;20672;-64
2022/08/13 11:39:26;;;;;;;3.88;0.90;;;;;;;;;;5010554;28;20204;-64
2022/08/13 11:41:52;;;;;;;4.10;0.90;;;;;;;;;;5013177;28;20228;-63
2022/08/13 11:44:17;;;;;;;1.33;0.63;;;;;;;;;;5012414;28;20220;-64
2022/08/13 11:46:43;;;;;;;1.23;0.80;;;;;;;;;;5012067;28;20248;-64
2022/08/13 11:49:09;;;;;;;2.80;0.80;;;;;;;;;;5012527;28;20216;-64
2022/08/13 11:51:34;;;;;;;2.33;0.90;;;;;;;;;;5013068;28;20334;-63
2022/08/13 11:54:00;;;;;;;2.30;0.90;;;;;;;;;;5012119;28;20671;-63
2022/08/13 11:56:25;;;;;;;3.42;0.70;;;;;;;;;;5012525;28;20730;-64
2022/08/13 11:58:51;;;;;;;2.65;1.00;;;;;;;;;;5012684;28;20215;-64
2022/08/13 12:01:18;;;;;;;3.25;1.00;;;;;;;;;;5011618;28;20215;-63
2022/08/13 12:03:43;;;;;;;1.67;0.77;;;;;;;;;;5012875;28;20299;-63
2022/08/13 12:06:09;;;;;;;4.25;0.93;;;;;;;;;;5012482;28;20338;-64
2022/08/13 12:08:34;;;;;;;2.38;0.80;;;;;;;;;;5012035;28;20701;-64
2022/08/13 12:10:59;;;;;;;1.25;0.80;;;;;;;;;;5012574;28;20281;-64
2022/08/13 12:13:25;;;;;;;4.57;0.85;;;;;;;;;;5012162;28;20591;-64
2022/08/13 12:15:50;;;;;;;2.50;0.82;;;;;;;;;;5011822;28;20216;-63
2022/08/13 12:18:16;;;;;;;2.28;0.90;;;;;;;;;;5012451;28;20693;-64
2022/08/13 12:20:41;;;;;;;4.25;1.00;;;;;;;;;;5012637;28;20209;-64
2022/08/13 12:23:08;;;;;;;2.85;0.80;;;;;;;;;;5011841;28;20228;-64
2022/08/13 12:25:33;;;;;;;5.40;0.90;;;;;;;;;;5012375;28;20714;-64
2022/08/13 12:28:10;;;;;;;2.42;0.90;;;;;;;;;;5012765;28;20212;-64
2022/08/13 12:30:35;;;;;;;2.80;0.88;;;;;;;;;;5011303;28;20218;-63
2022/08/13 12:33:01;;;;;;;4.03;0.80;;;;;;;;;;4996408;28;20220;-64
2022/08/13 12:35:26;;;;;;;3.75;1.10;;;;;;;;;;4989348;28;20263;-64
2022/08/13 12:37:53;;;;;;;3.75;1.00;;;;;;;;;;4993073;28;20465;-64
2022/08/13 12:40:18;;;;;;;3.35;0.98;;;;;;;;;;4999225;28;20231;-64
2022/08/13 12:42:44;;;;;;;5.68;1.13;;;;;;;;;;4991243;28;20589;-64
2022/08/13 12:45:09;;;;;;;2.85;0.98;;;;;;;;;;5004769;28;20263;-64
2022/08/13 12:47:35;;;;;;;5.45;1.10;;;;;;;;;;4988964;28;20245;-64
2022/08/13 12:50:01;;;;;;;3.33;1.00;;;;;;;;;;4994227;28;20718;-63
2022/08/13 12:52:26;;;;;;;3.17;0.98;;;;;;;;;;5009850;28;20631;-63
2022/08/13 12:54:52;;;;;;;1.42;1.00;;;;;;;;;;4990380;28;21271;-64
2022/08/13 12:57:17;;;;;;;4.47;1.00;;;;;;;;;;4982285;28;20215;-64
2022/08/13 12:59:42;;;;;;;3.45;0.82;;;;;;;;;;4982592;28;20209;-64
2022/08/13 13:02:09;;;;;;;4.35;1.00;;;;;;;;;;4982401;28;20228;-64
2022/08/13 13:04:35;;;;;;;3.17;0.90;;;;;;;;;;5008011;28;20216;-64
2022/08/13 13:07:01;;;;;;;4.00;1.05;;;;;;;;;;5005232;28;20579;-64
2022/08/13 13:09:26;;;;;;;3.67;0.93;;;;;;;;;;4990339;28;21109;-64
2022/08/13 13:11:51;;;;;;;2.67;1.02;;;;;;;;;;4989565;28;20257;-64
2022/08/13 13:14:16;;;;;;;4.50;0.90;;;;;;;;;;4996036;28;20226;-64
2022/08/13 13:16:43;;;;;;;2.35;0.95;;;;;;;;;;4989789;28;20209;-64
2022/08/13 13:19:09;;;;;;;2.65;1.00;;;;;;;;;;5003176;28;20727;-64
2022/08/13 13:21:34;;;;;;;0.93;0.70;;;;;;;;;;5000923;28;20248;-63
2022/08/13 13:24:00;;;;;;;2.30;0.82;;;;;;;;;;5001043;28;20220;-63
2022/08/13 13:26:25;;;;;;;3.58;1.00;;;;;;;;;;5004299;28;20299;-64
2022/08/13 13:28:53;;;;;;;1.83;1.10;;;;;;;;;;5009251;28;20327;-63
2022/08/13 13:31:19;;;;;;;4.57;1.33;;;;;;;;;;5009169;28;20208;-64
2022/08/13 13:33:44;;;;;;;3.70;1.08;;;;;;;;;;5013166;28;20242;-63
2022/08/13 13:36:09;;;;;;;2.75;1.00;;;;;;;;;;5014777;28;20689;-64
2022/08/13 13:38:35;;;;;;;3.00;0.90;;;;;;;;;;5014459;28;20756;-63
2022/08/13 13:41:00;;;;;;;2.03;0.80;;;;;;;;;;5011792;28;20228;-63
2022/08/13 13:43:25;;;;;;;3.10;1.10;;;;;;;;;;4995092;28;21240;-64
2022/08/13 13:45:51;;;;;;;2.28;0.82;;;;;;;;;;4996683;28;20259;-63
2022/08/13 13:48:18;;;;;;;2.10;0.80;;;;;;;;;;5013882;28;20220;-64
2022/08/13 13:50:43;;;;;;;2.08;1.00;;;;;;;;;;5013815;28;20212;-63
2022/08/13 13:53:09;;;;;;;2.78;1.10;;;;;;;;;;5013345;28;20208;-63
2022/08/13 13:55:34;;;;;;;2.03;1.13;;;;;;;;;;5014366;28;20294;-64
2022/08/13 13:57:59;;;;;;;4.05;1.00;;;;;;;;;;5014555;28;20684;-64
2022/08/13 14:00:25;;;;;;;2.40;1.10;;;;;;;;;;5013158;28;20250;-64
2022/08/13 14:02:52;;;;;;;2.17;1.00;;;;;;;;;;5014332;28;20230;-64
2022/08/13 14:05:18;;;;;;;4.38;1.15;;;;;;;;;;5013907;28;20204;-64
2022/08/13 14:07:50;;;;;;;1.83;1.00;;;;;;;;;;5012928;28;20232;-64
2022/08/13 14:10:16;;;;;;;5.05;1.20;;;;;;;;;;5013818;28;20218;-63
2022/08/13 14:12:42;;;;;;;2.28;0.90;;;;;;;;;;5013889;28;20774;-62
2022/08/13 14:15:08;;;;;;;3.67;1.10;;;;;;;;;;5013038;28;20236;-64
2022/08/13 14:17:33;;;;;;;2.83;1.10;;;;;;;;;;5013720;28;20212;-65
2022/08/13 14:19:59;;;;;;;3.03;1.10;;;;;;;;;;5014127;28;20213;-64
2022/08/13 14:22:25;;;;;;;1.85;0.90;;;;;;;;;;5011877;28;20594;-62
2022/08/13 14:24:50;;;;;;;2.63;0.90;;;;;;;;;;5012759;28;20209;-62
2022/08/13 14:27:15;;;;;;;2.05;1.00;;;;;;;;;;5011804;28;20684;-63
2022/08/13 14:29:41;;;;;;;4.43;1.30;;;;;;;;;;5011821;28;20215;-62
2022/08/13 14:32:06;;;;;;;1.85;1.20;;;;;;;;;;5012803;28;20604;-63
2022/08/13 14:34:32;;;;;;;4.70;1.23;;;;;;;;;;5014016;28;20291;-63
2022/08/13 14:36:57;;;;;;;1.75;1.10;;;;;;;;;;5011292;28;20208;-63
2022/08/13 14:39:22;;;;;;;4.30;1.20;;;;;;;;;;5011604;28;20212;-63
2022/08/13 14:41:48;;;;;;;2.42;1.00;;;;;;;;;;5012287;28;20350;-63
2022/08/13 14:44:13;;;;;;;4.32;1.48;;;;;;;;;;5010902;28;20224;-63
2022/08/13 14:46:38;;;;;;;3.70;1.13;;;;;;;;;;5013592;28;20304;-63
2022/08/13 14:49:04;;;;;;;3.33;1.33;;;;;;;;;;5012265;28;20602;-63